createdAt,value
2023-05-15T00:04:53.349Z,99116.42
2023-05-15T00:14:59.303Z,99124.08
2023-05-15T00:25:05.642Z,99100.56
2023-05-15T00:35:11.859Z,99066.98
2023-05-15T00:45:17.753Z,99048.13
2023-05-15T00:55:24.078Z,99026.18
2023-05-15T01:05:30.251Z,99023.59
2023-05-15T01:15:37.144Z,99024.63
2023-05-15T01:26:27.567Z,99006.33
2023-05-15T01:36:40.208Z,98999.24
2023-05-15T01:46:50.815Z,98985.59
2023-05-15T01:56:58.662Z,98973.30
2023-05-15T02:07:06.402Z,98959.13
2023-05-15T02:17:12.199Z,98939.24
2023-05-15T02:27:26.585Z,98923.27
2023-05-15T02:37:36.095Z,98896.61
2023-05-15T02:47:43.564Z,98868.59
2023-05-15T02:57:49.294Z,98863.80
2023-05-15T03:07:55.100Z,98849.15
2023-05-15T03:18:00.836Z,98836.27
2023-05-15T03:28:06.827Z,98823.56
2023-05-15T03:38:12.598Z,98811.07
2023-05-15T03:48:18.312Z,98803.70
2023-05-15T03:58:23.936Z,98802.33
2023-05-15T04:08:29.605Z,98793.20
2023-05-15T04:18:35.347Z,98794.75
2023-05-15T04:28:49.394Z,98792.98
2023-05-15T04:39:02.226Z,98774.51
2023-05-15T04:49:07.846Z,98759.38
2023-05-15T04:59:13.994Z,98758.91
2023-05-15T05:09:21.222Z,98754.31
2023-05-15T05:19:28.373Z,98750.49
2023-05-15T05:29:34.031Z,98755.72
2023-05-15T05:39:39.654Z,98739.86
2023-05-15T05:49:48.118Z,98720.90
2023-05-15T05:59:54.042Z,98712.53
2023-05-15T06:09:59.663Z,98711.73
2023-05-15T06:20:07.961Z,98691.04
2023-05-15T06:30:15.429Z,98670.09
2023-05-15T06:40:22.403Z,98651.02
2023-05-15T06:50:28.277Z,98648.48
2023-05-15T07:00:34.116Z,98652.31
2023-05-15T07:10:39.815Z,98644.69
2023-05-15T07:20:45.702Z,98616.30
2023-05-15T07:30:52.847Z,98604.30
2023-05-15T07:40:58.548Z,98596.61
2023-05-15T07:51:04.550Z,98589.34
2023-05-15T08:01:10.868Z,98593.42
2023-05-15T08:11:16.760Z,98584.80
2023-05-15T08:21:22.428Z,98580.52
2023-05-15T08:31:28.185Z,98568.73
2023-05-15T08:41:40.833Z,98567.67
2023-05-15T08:51:48.217Z,98563.41
2023-05-15T09:01:55.017Z,98561.91
2023-05-15T09:12:02.522Z,98554.83
2023-05-15T09:22:23.117Z,98555.59
2023-05-15T09:32:29.475Z,98547.81
2023-05-15T09:42:37.093Z,98547.98
2023-05-15T09:52:43.065Z,98535.80
2023-05-15T10:02:49.701Z,98535.48
2023-05-15T10:12:58.542Z,98536.90
2023-05-15T10:23:06.817Z,98542.48
2023-05-15T10:33:14.522Z,98544.04
2023-05-15T10:43:23.635Z,98538.27
2023-05-15T10:53:29.482Z,98534.69
2023-05-15T11:03:49.351Z,98541.73
2023-05-15T11:14:24.569Z,98535.67
2023-05-15T11:24:48.005Z,98525.70
2023-05-15T11:34:53.991Z,98511.95
2023-05-15T11:45:00.549Z,98495.13
2023-05-15T11:55:09.314Z,98488.00
2023-05-15T12:05:15.030Z,98485.85
2023-05-15T12:15:20.817Z,98476.35
2023-05-15T12:25:26.673Z,98460.37
2023-05-15T12:35:34.567Z,98450.29
2023-05-15T12:45:43.130Z,98451.39
2023-05-15T12:55:49.865Z,98441.79
2023-05-15T13:05:55.672Z,98432.97
2023-05-15T13:16:01.356Z,98432.30
2023-05-15T13:26:07.393Z,98426.02
2023-05-15T13:36:14.452Z,98422.97
2023-05-15T13:46:20.150Z,98430.20
2023-05-15T13:56:25.785Z,98427.30
2023-05-15T14:06:35.411Z,98427.64
2023-05-15T14:16:41.206Z,98428.73
2023-05-15T14:26:47.341Z,98423.39
2023-05-15T14:36:53.385Z,98428.09
2023-05-15T14:47:13.761Z,98421.20
2023-05-15T14:57:20.505Z,98424.80
2023-05-15T15:07:30.218Z,98418.33
2023-05-15T15:17:35.974Z,98417.00
2023-05-15T15:27:41.843Z,98414.16
2023-05-15T15:37:47.454Z,98407.23
2023-05-15T15:47:53.195Z,98400.35
2023-05-15T15:57:59.025Z,98387.42
2023-05-15T16:08:04.883Z,98388.54
2023-05-15T16:18:11.034Z,98404.64
2023-05-15T16:28:17.116Z,98408.87
2023-05-15T16:38:23.170Z,98416.23
2023-05-15T16:48:29.217Z,98422.64
2023-05-15T16:58:34.862Z,98420.77
2023-05-15T17:08:42.694Z,98434.45
2023-05-15T17:18:48.381Z,98443.04
2023-05-15T17:28:54.142Z,98454.21
2023-05-15T17:38:59.971Z,98462.00
2023-05-15T17:49:05.762Z,98475.04
2023-05-15T17:59:11.787Z,98477.60
2023-05-15T18:09:17.792Z,98482.41
2023-05-15T18:19:23.680Z,98483.59
2023-05-15T18:29:30.874Z,98486.36
2023-05-15T18:39:39.712Z,98496.41
2023-05-15T18:49:45.634Z,98504.77
2023-05-15T18:59:51.611Z,98516.38
2023-05-15T19:09:59.566Z,98525.86
2023-05-15T19:20:06.428Z,98542.77
2023-05-15T19:30:13.538Z,98555.80
2023-05-15T19:40:19.725Z,98558.04
2023-05-15T19:50:25.944Z,98564.85
2023-05-15T20:00:32.501Z,98576.64
2023-05-15T20:10:38.182Z,98583.55
2023-05-15T20:20:44.023Z,98577.68
2023-05-15T20:30:49.960Z,98575.90
2023-05-15T20:40:56.724Z,98579.80
2023-05-15T20:51:02.536Z,98580.92
2023-05-15T21:01:08.273Z,98587.20
2023-05-15T21:11:14.281Z,98599.63
2023-05-15T21:21:20.231Z,98604.23
2023-05-15T21:31:26.614Z,98609.54
2023-05-15T21:41:32.347Z,98609.05
2023-05-15T21:51:37.998Z,98608.85
2023-05-15T22:01:44.096Z,98613.62
2023-05-15T22:11:49.855Z,98616.46
2023-05-15T22:21:55.794Z,98622.70
2023-05-15T22:32:01.558Z,98630.15
2023-05-15T22:42:08.209Z,98638.48
2023-05-15T22:52:14.233Z,98644.82
2023-05-15T23:02:20.016Z,98647.69
2023-05-15T23:12:26.008Z,98651.89
2023-05-15T23:22:31.713Z,98650.02
2023-05-15T23:32:37.414Z,98651.61
2023-05-15T23:42:43.116Z,98662.98
2023-05-15T23:52:48.750Z,98666.34
